Hayataka Maru — JJ4041 — position and weather

sailwx.info

Track history (hours):
 
Tides and Currents Weather Stations Pressure Air Temp Water Temp Dewpoint Dewpoint Depression Visibility Wind Speed Wind Dir Waves Ship Positions

Hayataka Maru

Last reported at 2018-Jun-22 22:12 UTC. Time now 2018-Jun-24 01:42 UTC.
Position N 34°41' E 134°49'.

Length 37 m.

MMSI: 431301625.

Date/timePositionNaut miles runAvg speedWind from/ knotsBaromVisibWave heightAir tempDewpointWater temp
2018-Jun-22 22:12N 34°41' E 134°49'1 2.7
2018-Jun-22 21:56N 34°40' E 134°49'3 4.6
2018-Jun-22 21:13N 34°43' E 134°51'2 7.2
2018-Jun-22 20:59N 34°42' E 134°50'13 0.4
2018-Jun-21 10:39N 34°45' E 134°35'5 0.2
2018-Jun-20 01:37N 34°45' E 134°41'7 0.3
2018-Jun-18 22:58N 34°40' E 134°48'2 3.0
2018-Jun-18 22:25N 34°42' E 134°47'2 3.7
2018-Jun-18 21:58N 34°43' E 134°49'2 0.1
2018-Jun-17 22:57N 34°43' E 134°51'4 6.0
2018-Jun-17 22:17N 34°40' E 134°47'0 0.8
2018-Jun-17 21:58N 34°40' E 134°47'4 0.2
2018-Jun-17 06:51N 34°43' E 134°49'2 3.8
2018-Jun-17 06:18N 34°41' E 134°47'1 0.9
2018-Jun-17 05:17N 34°42' E 134°47'  
2018-Jun-13 00:35N 34°46' E 134°41'3 6.5
2018-Jun-13 00:04N 34°43' E 134°41'2 8.1
2018-Jun-12 23:50N 34°41' E 134°41'  
Track history (hours):
 
Tides and Currents Weather Stations Pressure Air Temp Water Temp Dewpoint Dewpoint Depression Visibility Wind Speed Wind Dir Waves Ship Positions

Hayataka Maru

Last reported at 2018-Jun-22 22:12 UTC. Time now 2018-Jun-24 01:42 UTC.
Position N 34°41' E 134°49'.

Length 37 m.

MMSI: 431301625.

Date/timePositionNaut miles runAvg speedWind from/ knotsBaromVisibWave heightAir tempDewpointWater temp
2018-Jun-22 22:12N 34°41' E 134°49'1 2.7
2018-Jun-22 21:56N 34°40' E 134°49'3 4.6
2018-Jun-22 21:13N 34°43' E 134°51'2 7.2
2018-Jun-22 20:59N 34°42' E 134°50'13 0.4
2018-Jun-21 10:39N 34°45' E 134°35'5 0.2
2018-Jun-20 01:37N 34°45' E 134°41'7 0.3
2018-Jun-18 22:58N 34°40' E 134°48'2 3.0
2018-Jun-18 22:25N 34°42' E 134°47'2 3.7
2018-Jun-18 21:58N 34°43' E 134°49'2 0.1
2018-Jun-17 22:57N 34°43' E 134°51'4 6.0
2018-Jun-17 22:17N 34°40' E 134°47'0 0.8
2018-Jun-17 21:58N 34°40' E 134°47'4 0.2
2018-Jun-17 06:51N 34°43' E 134°49'2 3.8
2018-Jun-17 06:18N 34°41' E 134°47'1 0.9
2018-Jun-17 05:17N 34°42' E 134°47'  
2018-Jun-13 00:35N 34°46' E 134°41'3 6.5
2018-Jun-13 00:04N 34°43' E 134°41'2 8.1
2018-Jun-12 23:50N 34°41' E 134°41'  

Dump ship's entire track history